Terminal Aerodrome Forecast
Issued by NWS Kansas City/Pleasant Hill, MO

Home | Current Version | Previous Version | Text Only | Print | Product List | Glossary On
Versions: 1 2 3 4 5 6 7 8 9 10 11 12 13 14 15 16 17 18 19
000
FTUS43 KEAX 140520
TAFMCI
TAF
KMCI 140520Z 1406/1506 05006KT 4SM -FZRA OVC020
     FM140700 02006KT P6SM VCSH OVC015
     FM141200 01006KT P6SM OVC015
     FM142000 04005KT P6SM OVC025=

USA.gov is the U.S. government's official web portal to all federal, state and local government web resources and services.